createdAt,value
2023-05-05T03:59:11.080Z,43.61
2023-05-05T04:00:11.030Z,43.59
2023-05-05T04:01:11.035Z,43.71
2023-05-05T04:02:11.033Z,43.68
2023-05-05T04:03:11.293Z,43.68
2023-05-05T04:04:11.021Z,44.09
2023-05-05T04:05:10.998Z,43.99
2023-05-05T04:06:11.004Z,44.09
2023-05-05T04:07:10.985Z,43.99
2023-05-05T04:08:10.984Z,43.80
2023-05-05T04:09:10.971Z,44.09
2023-05-05T04:10:11.020Z,44.19
2023-05-05T04:11:10.989Z,44.09
2023-05-05T04:12:10.959Z,44.48
2023-05-05T04:13:11.104Z,44.19
2023-05-05T04:14:10.954Z,44.09
2023-05-05T04:15:10.989Z,44.48
2023-05-05T04:16:11.001Z,44.38
2023-05-05T04:17:10.955Z,44.28
2023-05-05T04:18:11.004Z,44.28
2023-05-05T04:19:10.943Z,44.67
2023-05-05T04:20:11.072Z,44.48
2023-05-05T04:21:10.957Z,43.90
2023-05-05T04:22:10.926Z,43.99
2023-05-05T04:23:10.913Z,44.57
2023-05-05T04:24:10.898Z,44.09
2023-05-05T04:25:10.909Z,43.99
2023-05-05T04:26:10.900Z,44.48
2023-05-05T04:27:10.902Z,44.48
2023-05-05T04:28:10.894Z,44.48
2023-05-05T04:29:10.901Z,44.57
2023-05-05T04:30:10.901Z,44.49
2023-05-05T04:31:10.946Z,44.49
2023-05-05T04:32:10.893Z,44.49
2023-05-05T04:33:10.883Z,44.49
2023-05-05T04:34:10.869Z,44.49
2023-05-05T04:35:10.865Z,44.49
2023-05-05T04:36:10.857Z,44.49
2023-05-05T04:37:10.882Z,44.59
2023-05-05T04:38:10.854Z,44.49
2023-05-05T04:39:10.856Z,44.49
2023-05-05T04:40:10.853Z,44.02
2023-05-05T04:41:10.828Z,44.49
2023-05-05T04:42:10.864Z,44.59
2023-05-05T04:43:10.830Z,44.49
2023-05-05T04:44:10.852Z,44.59
2023-05-05T04:45:10.818Z,44.49
2023-05-05T04:46:10.879Z,44.40
2023-05-05T04:47:12.606Z,44.40
2023-05-05T04:48:10.835Z,44.40
2023-05-05T04:49:10.830Z,44.59
2023-05-05T04:50:10.943Z,44.59
2023-05-05T04:51:10.812Z,44.40
2023-05-05T04:52:10.798Z,44.04
2023-05-05T04:53:10.806Z,44.40
2023-05-05T04:54:10.794Z,44.31
2023-05-05T04:55:10.778Z,44.31
2023-05-05T04:56:10.787Z,44.40
2023-05-05T04:57:10.790Z,44.40
2023-05-05T04:58:10.796Z,44.42
2023-05-05T04:59:10.791Z,44.42
2023-05-05T05:00:10.934Z,44.23
2023-05-05T05:01:10.755Z,44.42
2023-05-05T05:02:10.827Z,44.42
2023-05-05T05:03:10.869Z,44.52
2023-05-05T05:04:10.766Z,44.52
2023-05-05T05:05:10.755Z,44.23
2023-05-05T05:06:10.744Z,44.23
2023-05-05T05:07:10.754Z,44.13
2023-05-05T05:08:10.749Z,44.32
2023-05-05T05:09:10.758Z,44.32
2023-05-05T05:10:10.956Z,44.23
2023-05-05T05:11:10.752Z,44.23
2023-05-05T05:12:10.731Z,44.23
2023-05-05T05:13:12.771Z,44.13
2023-05-05T05:14:10.736Z,44.23
2023-05-05T05:15:10.715Z,44.04
2023-05-05T05:16:10.756Z,44.32
2023-05-05T05:17:10.712Z,44.23
2023-05-05T05:18:10.729Z,44.23
2023-05-05T05:19:10.736Z,44.35
2023-05-05T05:20:10.924Z,43.96
2023-05-05T05:21:10.711Z,43.67
2023-05-05T05:22:10.688Z,44.06
2023-05-05T05:23:10.694Z,44.06
2023-05-05T05:24:10.708Z,44.15
2023-05-05T05:25:10.679Z,44.15
2023-05-05T05:26:10.677Z,44.06
2023-05-05T05:27:10.692Z,44.06
2023-05-05T05:28:11.145Z,44.06
2023-05-05T05:29:10.682Z,44.15
2023-05-05T05:30:10.722Z,43.58
2023-05-05T05:31:10.678Z,43.77
2023-05-05T05:32:10.700Z,43.77
2023-05-05T05:33:10.801Z,43.96
2023-05-05T05:34:12.699Z,43.96
2023-05-05T05:35:10.695Z,43.98
2023-05-05T05:36:10.650Z,43.98
2023-05-05T05:37:10.694Z,43.70
2023-05-05T05:38:10.641Z,44.08
2023-05-05T05:39:10.649Z,44.08
2023-05-05T05:40:10.713Z,43.79
2023-05-05T05:41:10.622Z,43.98
2023-05-05T05:42:10.645Z,43.98
2023-05-05T05:43:10.645Z,43.79
2023-05-05T05:44:10.656Z,43.70
2023-05-05T05:45:10.678Z,43.98
2023-05-05T05:46:10.704Z,43.70
2023-05-05T05:47:10.636Z,43.79
2023-05-05T05:48:10.830Z,43.89
2023-05-05T05:49:10.662Z,43.89
2023-05-05T05:50:10.760Z,43.70
2023-05-05T05:51:10.669Z,43.70
2023-05-05T05:52:10.647Z,43.98
2023-05-05T05:53:10.668Z,43.60
2023-05-05T05:54:10.601Z,44.18
2023-05-05T05:55:10.625Z,43.98
2023-05-05T05:56:10.794Z,43.79
2023-05-05T05:57:10.647Z,43.89
2023-05-05T05:58:10.667Z,43.89
2023-05-05T05:59:10.583Z,43.98
2023-05-05T06:00:10.727Z,43.98
2023-05-05T06:01:10.648Z,43.98
2023-05-05T06:02:10.684Z,44.08
2023-05-05T06:03:10.693Z,44.08
2023-05-05T06:04:10.700Z,43.98
2023-05-05T06:05:10.565Z,43.70
2023-05-05T06:06:10.600Z,43.79
2023-05-05T06:07:10.561Z,43.89
2023-05-05T06:08:10.557Z,43.79
2023-05-05T06:09:10.553Z,43.89
2023-05-05T06:10:25.723Z,44.08
2023-05-05T06:11:10.597Z,44.08
2023-05-05T06:12:10.554Z,43.98
2023-05-05T06:13:10.646Z,43.89
2023-05-05T06:14:10.536Z,43.60
2023-05-05T06:15:10.532Z,44.15
2023-05-05T06:16:10.580Z,44.18
2023-05-05T06:17:10.521Z,44.27
2023-05-05T06:18:10.613Z,44.27
2023-05-05T06:19:10.527Z,44.18
2023-05-05T06:20:10.535Z,44.27
2023-05-05T06:21:10.538Z,44.18
2023-05-05T06:22:10.527Z,44.15
2023-05-05T06:23:10.514Z,44.18
2023-05-05T06:24:10.501Z,43.89
2023-05-05T06:25:10.512Z,44.18
2023-05-05T06:26:10.494Z,43.96
2023-05-05T06:27:10.536Z,44.15
2023-05-05T06:28:10.517Z,44.08
2023-05-05T06:29:12.219Z,44.08
2023-05-05T06:30:10.753Z,43.79
2023-05-05T06:31:10.555Z,44.15
2023-05-05T06:32:10.477Z,44.15
2023-05-05T06:33:10.469Z,44.06
2023-05-05T06:34:10.471Z,43.96
2023-05-05T06:35:10.494Z,43.96
2023-05-05T06:36:10.524Z,44.06
2023-05-05T06:37:10.487Z,43.77
2023-05-05T06:39:43.022Z,44.06
2023-05-05T06:40:43.002Z,44.15
2023-05-05T06:41:42.992Z,43.77
2023-05-05T06:42:42.964Z,44.15
2023-05-05T06:43:42.969Z,44.06
2023-05-05T06:44:42.968Z,44.27
2023-05-05T06:45:43.873Z,44.15
2023-05-05T06:46:43.021Z,44.15
2023-05-05T06:47:42.987Z,44.06
2023-05-05T06:48:42.952Z,44.06
2023-05-05T06:49:42.941Z,44.25
2023-05-05T06:50:42.950Z,44.25
2023-05-05T06:51:43.122Z,44.06
2023-05-05T06:52:42.983Z,44.15
2023-05-05T06:53:42.940Z,44.15
2023-05-05T06:54:42.929Z,44.27
2023-05-05T06:55:43.043Z,44.35
2023-05-05T06:56:42.939Z,44.25
2023-05-05T06:57:42.915Z,44.45
2023-05-05T06:58:42.917Z,44.35
2023-05-05T06:59:42.911Z,44.35
2023-05-05T07:00:42.976Z,44.35
2023-05-05T07:01:42.905Z,44.35
2023-05-05T07:02:42.965Z,44.35
2023-05-05T07:03:42.991Z,44.15
2023-05-05T07:04:43.004Z,44.35
2023-05-05T07:05:42.920Z,44.25
2023-05-05T07:06:42.905Z,44.45
2023-05-05T07:07:42.885Z,44.37
2023-05-05T07:08:42.891Z,44.18
2023-05-05T07:09:42.895Z,44.27
2023-05-05T07:10:42.895Z,44.27
2023-05-05T07:11:42.974Z,44.46
2023-05-05T07:12:42.904Z,44.18
2023-05-05T07:13:42.868Z,44.46
2023-05-05T07:14:42.883Z,44.27
2023-05-05T07:15:42.876Z,44.08
2023-05-05T07:16:42.911Z,44.27
2023-05-05T07:17:42.919Z,44.18
2023-05-05T07:18:42.864Z,44.18
2023-05-05T07:19:42.854Z,43.98
2023-05-05T07:20:43.374Z,44.27
2023-05-05T07:21:42.848Z,44.37
2023-05-05T07:22:42.878Z,44.18
2023-05-05T07:23:43.065Z,44.37
2023-05-05T07:24:42.848Z,44.39
2023-05-05T07:25:42.845Z,44.29
2023-05-05T07:26:42.854Z,44.01
2023-05-05T07:27:43.020Z,44.29
2023-05-05T07:28:42.869Z,44.39
2023-05-05T07:29:42.854Z,44.20
2023-05-05T07:30:42.830Z,44.39
2023-05-05T07:31:42.977Z,44.39
2023-05-05T07:32:42.977Z,44.29
2023-05-05T07:33:42.926Z,44.20
2023-05-05T07:34:42.860Z,44.20
2023-05-05T07:35:42.966Z,44.20
2023-05-05T07:36:42.875Z,44.29
2023-05-05T07:37:42.826Z,43.91
2023-05-05T07:38:42.895Z,44.29
2023-05-05T07:39:42.899Z,43.81
2023-05-05T07:40:42.821Z,44.29
2023-05-05T07:41:42.958Z,44.29
2023-05-05T07:42:42.805Z,43.91
2023-05-05T07:43:44.486Z,44.20
2023-05-05T07:44:42.854Z,44.20
2023-05-05T07:45:42.911Z,44.20
2023-05-05T07:46:42.838Z,44.01
2023-05-05T07:47:42.834Z,44.01
2023-05-05T07:48:42.820Z,44.22
2023-05-05T07:49:42.797Z,44.42
2023-05-05T07:50:42.810Z,44.42
2023-05-05T07:51:43.949Z,44.22
2023-05-05T07:52:46.758Z,44.22
2023-05-05T07:53:42.776Z,44.32
2023-05-05T07:54:42.770Z,44.22
2023-05-05T07:55:42.809Z,44.12
2023-05-05T07:56:42.762Z,44.32
2023-05-05T07:57:43.002Z,44.03
2023-05-05T07:58:42.779Z,44.42
2023-05-05T07:59:42.894Z,44.32
2023-05-05T08:00:42.743Z,43.84
2023-05-05T08:01:42.798Z,44.12
2023-05-05T08:02:42.829Z,44.22
2023-05-05T08:03:42.886Z,43.93
2023-05-05T08:04:42.895Z,44.12
2023-05-05T08:05:42.780Z,43.93
2023-05-05T08:06:42.734Z,44.42
2023-05-05T08:07:42.727Z,44.32
2023-05-05T08:08:42.730Z,44.05
2023-05-05T08:09:42.738Z,44.15
2023-05-05T08:10:42.722Z,44.05
2023-05-05T08:11:42.733Z,44.34
2023-05-05T08:12:42.765Z,44.24
2023-05-05T08:13:42.784Z,44.34
2023-05-05T08:14:42.776Z,43.95
2023-05-05T08:15:42.892Z,43.95
2023-05-05T08:16:42.720Z,44.34
2023-05-05T08:17:42.769Z,44.34
2023-05-05T08:18:42.753Z,44.43
2023-05-05T08:19:42.804Z,44.15
2023-05-05T08:20:42.739Z,44.34
2023-05-05T08:21:42.719Z,44.24
2023-05-05T08:22:42.712Z,44.24
2023-05-05T08:23:42.734Z,44.43
2023-05-05T08:24:42.747Z,44.34
2023-05-05T08:25:42.709Z,44.24
2023-05-05T08:26:42.702Z,44.34
2023-05-05T08:27:42.693Z,44.36
2023-05-05T08:28:42.785Z,44.36
2023-05-05T08:29:42.713Z,44.34
2023-05-05T08:30:42.769Z,43.95
2023-05-05T08:31:42.933Z,44.36
2023-05-05T08:32:42.792Z,44.36
2023-05-05T08:33:42.703Z,44.17
2023-05-05T08:34:42.698Z,44.36
2023-05-05T08:35:42.710Z,44.17
2023-05-05T08:36:42.719Z,44.26
2023-05-05T08:37:42.688Z,44.17
2023-05-05T08:38:42.687Z,43.98
2023-05-05T08:39:42.697Z,44.17
2023-05-05T08:40:42.686Z,44.38
2023-05-05T08:41:42.817Z,44.19
2023-05-05T08:42:42.687Z,44.29
2023-05-05T08:43:42.664Z,44.38
2023-05-05T08:44:43.404Z,44.29
2023-05-05T08:45:42.673Z,43.99
2023-05-05T08:46:42.759Z,44.29
2023-05-05T08:47:42.811Z,44.19
2023-05-05T08:48:42.747Z,44.29
2023-05-05T08:49:42.715Z,44.09
2023-05-05T08:50:42.718Z,43.80
2023-05-05T08:51:42.733Z,44.09
2023-05-05T08:52:42.746Z,43.90
2023-05-05T08:53:42.660Z,44.02
2023-05-05T08:54:42.655Z,43.99
2023-05-05T08:55:42.665Z,44.09
2023-05-05T08:57:42.640Z,44.21
2023-05-05T08:58:42.698Z,43.63
2023-05-05T08:59:42.660Z,44.21
2023-05-05T09:01:42.655Z,43.92
2023-05-05T09:02:42.749Z,43.92
2023-05-05T09:03:43.633Z,44.02
2023-05-05T09:04:42.642Z,44.02
2023-05-05T09:05:42.709Z,43.82
2023-05-05T09:07:42.647Z,43.82
2023-05-05T09:08:42.637Z,43.92
2023-05-05T09:09:42.726Z,43.82
2023-05-05T09:10:42.741Z,43.85
2023-05-05T09:13:15.350Z,43.95
2023-05-05T09:14:15.291Z,43.85
2023-05-05T09:15:15.317Z,43.85
2023-05-05T09:16:15.327Z,43.75
2023-05-05T09:17:15.203Z,43.95
2023-05-05T09:18:15.224Z,43.85
2023-05-05T09:19:15.269Z,43.95
2023-05-05T09:20:15.233Z,43.95
2023-05-05T09:21:15.289Z,43.95
2023-05-05T09:22:15.236Z,44.04
2023-05-05T09:23:15.203Z,43.85
2023-05-05T09:24:15.483Z,43.85
2023-05-05T09:25:15.211Z,44.13
2023-05-05T09:26:15.983Z,44.06
2023-05-05T09:27:16.298Z,43.96
2023-05-05T09:28:15.898Z,43.85
2023-05-05T09:29:15.305Z,43.77
2023-05-05T09:30:15.224Z,43.96
2023-05-05T09:31:15.222Z,44.06
2023-05-05T09:32:15.373Z,44.06
2023-05-05T09:33:15.296Z,44.16
2023-05-05T09:34:15.225Z,44.06
2023-05-05T09:35:15.453Z,43.58
2023-05-05T09:36:15.274Z,43.68
2023-05-05T09:37:15.267Z,44.27
2023-05-05T09:38:15.230Z,43.89
2023-05-05T09:39:15.274Z,44.06
2023-05-05T09:40:15.613Z,43.89
2023-05-05T09:41:15.219Z,43.89
2023-05-05T09:42:15.196Z,43.89
2023-05-05T09:43:15.210Z,44.09
2023-05-05T09:44:15.986Z,43.89
2023-05-05T09:45:15.229Z,43.89
2023-05-05T09:46:15.293Z,43.79
2023-05-05T09:47:28.473Z,43.89
2023-05-05T09:48:15.391Z,43.89
2023-05-05T09:49:15.202Z,43.89
2023-05-05T09:50:15.246Z,43.79
2023-05-05T09:51:15.296Z,43.79
2023-05-05T09:52:15.176Z,43.79
2023-05-05T09:53:15.233Z,43.70
2023-05-05T09:54:15.259Z,43.79
2023-05-05T09:55:15.180Z,43.60
2023-05-05T09:56:15.222Z,43.60
2023-05-05T09:57:15.244Z,43.91
2023-05-05T09:58:15.275Z,43.82
2023-05-05T09:59:15.242Z,43.52
2023-05-05T10:00:15.224Z,43.82
2023-05-05T10:01:15.237Z,43.72
2023-05-05T10:02:15.322Z,43.82
2023-05-05T10:13:33.402Z,43.62
2023-05-05T10:14:33.546Z,43.82
2023-05-05T10:15:33.235Z,43.72
2023-05-05T10:16:33.356Z,43.52
2023-05-05T10:17:33.281Z,43.33
2023-05-05T10:19:33.276Z,43.52
2023-05-05T10:20:33.315Z,43.62
2023-05-05T10:21:33.239Z,43.72
2023-05-05T10:22:33.229Z,43.52
2023-05-05T10:24:33.235Z,43.54
2023-05-05T10:25:33.401Z,43.64
2023-05-05T10:26:33.237Z,43.74
2023-05-05T10:27:33.297Z,43.84
2023-05-05T10:28:33.295Z,43.93
2023-05-05T10:29:33.303Z,43.74
2023-05-05T10:30:35.778Z,43.93
2023-05-05T10:31:34.208Z,43.57
2023-05-05T10:33:33.401Z,43.95
2023-05-05T10:34:33.312Z,43.86
2023-05-05T10:35:33.249Z,43.86
2023-05-05T10:36:33.282Z,43.47
2023-05-05T10:37:33.246Z,43.76
2023-05-05T10:38:33.391Z,43.66
2023-05-05T10:39:33.254Z,43.86
2023-05-05T10:40:33.309Z,43.95
2023-05-05T10:41:33.245Z,43.88
2023-05-05T10:42:33.236Z,43.78
2023-05-05T10:43:33.251Z,43.59
2023-05-05T10:44:33.237Z,43.78
2023-05-05T10:45:33.461Z,43.78
2023-05-05T10:46:33.370Z,43.59
2023-05-05T10:47:33.275Z,43.61
2023-05-05T10:48:33.301Z,43.61
2023-05-05T10:49:33.404Z,43.78
2023-05-05T10:50:33.962Z,43.80
2023-05-05T10:51:39.838Z,43.71
2023-05-05T10:52:33.264Z,43.61
2023-05-05T10:53:33.270Z,43.71
2023-05-05T10:54:33.960Z,43.71
2023-05-05T10:55:33.249Z,43.41
2023-05-05T10:56:33.284Z,43.90
2023-05-05T10:57:33.290Z,43.82
2023-05-05T10:58:38.542Z,43.82
2023-05-05T10:59:33.269Z,43.73
2023-05-05T11:00:33.269Z,43.73
2023-05-05T11:01:33.877Z,43.63
2023-05-05T11:02:33.361Z,43.54
2023-05-05T11:03:33.503Z,43.46
2023-05-05T11:04:33.328Z,43.46
2023-05-05T11:05:33.279Z,43.36
2023-05-05T11:06:33.327Z,43.36
2023-05-05T11:07:33.303Z,43.46
2023-05-05T11:08:33.321Z,43.46
2023-05-05T11:09:33.294Z,43.26
2023-05-05T11:10:33.320Z,43.26
2023-05-05T11:11:33.316Z,43.29
2023-05-05T11:12:33.658Z,43.29
2023-05-05T11:13:33.399Z,43.58
2023-05-05T11:14:33.994Z,42.99
2023-05-05T11:15:33.432Z,43.38
2023-05-05T11:16:34.075Z,43.11
2023-05-05T11:17:33.442Z,43.30
2023-05-05T11:18:33.363Z,43.21
2023-05-05T11:19:33.368Z,43.01
2023-05-05T11:20:33.318Z,43.11
2023-05-05T11:21:33.328Z,43.01
2023-05-05T11:22:33.339Z,42.84
2023-05-05T11:23:33.372Z,42.84
2023-05-05T11:24:33.368Z,42.84
2023-05-05T11:25:33.340Z,42.84
2023-05-05T11:26:33.658Z,43.04
2023-05-05T11:27:33.402Z,42.74
2023-05-05T11:28:33.358Z,42.66
2023-05-05T11:29:33.373Z,42.66
2023-05-05T11:30:33.416Z,42.66
2023-05-05T11:31:33.472Z,42.57
2023-05-05T11:32:33.425Z,42.47
2023-05-05T11:33:33.580Z,42.40
2023-05-05T11:34:33.408Z,42.49
2023-05-05T11:35:33.368Z,42.49
2023-05-05T11:36:33.370Z,42.30
2023-05-05T11:37:33.375Z,42.32
2023-05-05T11:38:33.445Z,42.41
2023-05-05T11:39:33.382Z,42.20
2023-05-05T11:40:33.387Z,42.12
2023-05-05T11:41:33.532Z,42.22
2023-05-05T11:42:33.410Z,42.02
2023-05-05T11:43:33.396Z,42.14
2023-05-05T11:44:33.407Z,42.05
2023-05-05T11:45:33.473Z,42.05
2023-05-05T11:46:33.464Z,41.85
2023-05-05T11:47:33.439Z,41.95
2023-05-05T11:48:33.429Z,41.77
2023-05-05T11:49:33.510Z,41.77
2023-05-05T11:50:33.431Z,41.87
2023-05-05T11:51:33.446Z,41.77
2023-05-05T11:52:33.443Z,42.07
2023-05-05T11:53:33.443Z,41.48
2023-05-05T11:54:33.460Z,41.48
2023-05-05T11:55:33.543Z,41.67
2023-05-05T11:56:33.464Z,41.21
2023-05-05T11:57:33.489Z,41.21
2023-05-05T11:58:33.462Z,41.21
2023-05-05T11:59:33.456Z,41.50
2023-05-05T12:00:33.476Z,41.23
2023-05-05T12:01:33.475Z,40.94
2023-05-05T12:02:33.521Z,40.84
2023-05-05T12:03:33.631Z,40.76
2023-05-05T12:04:33.508Z,41.03
2023-05-05T12:05:36.331Z,40.74
2023-05-05T12:06:33.508Z,40.74
2023-05-05T12:07:33.528Z,40.74
2023-05-05T12:08:33.506Z,41.23
2023-05-05T12:09:33.565Z,40.76
2023-05-05T12:10:33.506Z,40.56
2023-05-05T12:11:33.517Z,40.56
2023-05-05T12:12:33.532Z,40.47
2023-05-05T12:13:33.570Z,40.47
2023-05-05T12:14:33.522Z,40.76
2023-05-05T12:15:33.560Z,40.78
2023-05-05T12:16:33.591Z,40.19
2023-05-05T12:17:33.585Z,40.19
2023-05-05T12:18:33.535Z,40.21
2023-05-05T12:19:33.583Z,40.00
2023-05-05T12:20:33.603Z,40.31
2023-05-05T12:21:33.662Z,40.31
2023-05-05T12:22:33.580Z,40.01
2023-05-05T12:23:33.573Z,39.62
2023-05-05T12:24:33.580Z,39.82
2023-05-05T12:25:33.597Z,40.21
2023-05-05T12:26:33.583Z,40.31
2023-05-05T12:27:33.603Z,40.41
2023-05-05T12:28:33.599Z,40.09
2023-05-05T12:29:33.612Z,40.39
2023-05-05T12:30:33.638Z,40.48
2023-05-05T12:31:33.657Z,40.48
2023-05-05T12:32:33.644Z,40.29
2023-05-05T12:33:33.630Z,40.09
2023-05-05T12:34:33.625Z,40.19
2023-05-05T12:35:33.642Z,39.98
2023-05-05T12:36:33.662Z,40.08
2023-05-05T12:37:33.806Z,40.27
2023-05-05T12:38:33.635Z,40.17
2023-05-05T12:39:33.643Z,40.27
2023-05-05T12:40:33.666Z,40.37
2023-05-05T12:41:33.677Z,40.08
2023-05-05T12:42:33.704Z,40.37
2023-05-05T12:43:33.688Z,40.37
2023-05-05T12:44:33.671Z,40.17
2023-05-05T12:45:33.711Z,40.35
2023-05-05T12:46:33.826Z,40.16
2023-05-05T12:47:33.927Z,40.14
2023-05-05T12:50:06.339Z,40.53
2023-05-05T12:51:06.230Z,40.53
2023-05-05T12:52:06.227Z,40.43
2023-05-05T12:53:06.344Z,40.89
2023-05-05T12:54:06.258Z,40.80
2023-05-05T12:55:06.439Z,40.70
2023-05-05T12:56:06.249Z,40.80
2023-05-05T12:57:06.266Z,40.60
2023-05-05T12:58:06.258Z,40.60
2023-05-05T12:59:06.302Z,40.58
2023-05-05T13:00:06.492Z,40.78
2023-05-05T13:01:06.302Z,40.58
2023-05-05T13:02:06.290Z,40.58
2023-05-05T13:03:06.420Z,40.58
2023-05-05T13:04:06.286Z,40.58
2023-05-05T13:05:06.477Z,40.88
2023-05-05T13:06:06.287Z,40.68
2023-05-05T13:07:06.280Z,40.19
2023-05-05T13:08:06.309Z,40.39
2023-05-05T13:09:06.388Z,40.58
2023-05-05T13:10:06.325Z,40.39
2023-05-05T13:11:06.310Z,40.58
2023-05-05T13:12:06.316Z,40.58
2023-05-05T13:13:06.330Z,40.68
2023-05-05T13:14:06.317Z,40.27
2023-05-05T13:15:06.477Z,40.76
2023-05-05T13:16:06.353Z,40.66
2023-05-05T13:17:06.314Z,40.86
2023-05-05T13:18:06.396Z,40.93
2023-05-05T13:19:06.343Z,41.22
2023-05-05T13:20:06.414Z,41.32
2023-05-05T13:21:06.307Z,41.13
2023-05-05T13:22:06.317Z,41.32
2023-05-05T13:23:06.321Z,41.03
2023-05-05T13:24:22.930Z,41.22
2023-05-05T13:25:06.430Z,41.03
2023-05-05T13:26:06.348Z,41.22
2023-05-05T13:27:06.327Z,41.03
2023-05-05T13:28:06.353Z,41.32
2023-05-05T13:29:06.365Z,40.93
2023-05-05T13:30:06.422Z,41.50
2023-05-05T13:31:06.400Z,41.13
2023-05-05T13:32:06.366Z,41.30
2023-05-05T13:33:06.446Z,41.50
2023-05-05T13:34:06.343Z,41.20
2023-05-05T13:35:06.468Z,41.40
2023-05-05T13:36:06.393Z,41.30
2023-05-05T13:37:06.375Z,41.11
2023-05-05T13:38:06.367Z,41.20
2023-05-05T13:39:06.356Z,41.30
2023-05-05T13:40:06.384Z,41.30
2023-05-05T13:41:06.485Z,41.20
2023-05-05T13:42:06.419Z,41.42
2023-05-05T13:43:06.353Z,41.32
2023-05-05T13:44:06.354Z,40.93
2023-05-05T13:45:06.450Z,40.83
2023-05-05T13:46:19.115Z,40.83
2023-05-05T13:47:06.425Z,41.03
2023-05-05T13:48:06.381Z,41.13
2023-05-05T13:49:06.373Z,41.03
2023-05-05T13:50:06.440Z,41.32
2023-05-05T13:51:06.394Z,41.42
2023-05-05T13:52:06.391Z,41.50
2023-05-05T13:53:06.381Z,41.60
2023-05-05T13:54:06.388Z,41.40
2023-05-05T13:55:06.492Z,41.89
2023-05-05T13:56:06.397Z,41.79
2023-05-05T13:57:06.526Z,41.11
2023-05-05T13:58:06.388Z,41.40
2023-05-05T13:59:06.428Z,41.50
2023-05-05T14:00:06.446Z,41.50
2023-05-05T14:01:06.501Z,41.40
2023-05-05T14:02:06.386Z,41.60
2023-05-05T14:03:06.415Z,41.69
2023-05-05T14:04:06.487Z,41.48
2023-05-05T14:05:06.531Z,41.40
2023-05-05T14:06:06.401Z,41.79
2023-05-05T14:07:06.440Z,41.40
2023-05-05T14:08:06.416Z,41.50
2023-05-05T14:09:06.654Z,41.69
2023-05-05T14:10:06.431Z,41.50
2023-05-05T14:11:07.045Z,41.30
2023-05-05T14:12:06.420Z,41.40
2023-05-05T14:13:06.453Z,41.50
2023-05-05T14:14:06.444Z,41.60
2023-05-05T14:15:06.706Z,41.57
2023-05-05T14:16:06.462Z,41.69
2023-05-05T14:17:06.484Z,41.67
2023-05-05T14:18:06.530Z,41.86
2023-05-05T14:19:06.465Z,41.96
2023-05-05T14:20:06.582Z,41.96
2023-05-05T14:21:06.453Z,41.94
2023-05-05T14:22:06.493Z,42.25
2023-05-05T14:23:06.447Z,42.04
2023-05-05T14:24:06.432Z,42.14
2023-05-05T14:25:06.725Z,42.33
2023-05-05T14:26:06.464Z,42.04
2023-05-05T14:27:06.500Z,42.33
2023-05-05T14:28:06.455Z,42.14
2023-05-05T14:29:06.594Z,42.04
2023-05-05T14:30:06.462Z,42.60
2023-05-05T14:31:06.464Z,42.31
2023-05-05T14:32:06.537Z,42.31
2023-05-05T14:33:06.482Z,42.50
2023-05-05T14:34:06.468Z,42.50
2023-05-05T14:35:06.643Z,42.39
2023-05-05T14:36:06.462Z,42.68
2023-05-05T14:37:06.467Z,42.49
2023-05-05T14:38:06.493Z,42.78
2023-05-05T14:39:06.487Z,42.76
2023-05-05T14:40:06.584Z,42.78
2023-05-05T14:41:06.500Z,42.78
2023-05-05T14:42:06.477Z,42.76
2023-05-05T14:43:06.458Z,42.76
2023-05-05T14:44:06.467Z,42.76
2023-05-05T14:45:06.991Z,42.76
2023-05-05T14:46:06.863Z,42.85
2023-05-05T14:47:06.476Z,42.85
2023-05-05T14:48:06.465Z,42.74
2023-05-05T14:49:06.460Z,42.74
2023-05-05T14:50:06.492Z,43.02
2023-05-05T14:51:06.468Z,43.02
2023-05-05T14:52:06.494Z,43.12
2023-05-05T14:53:06.501Z,43.30
2023-05-05T14:54:14.275Z,43.12
2023-05-05T14:55:06.662Z,42.91
2023-05-05T14:56:06.460Z,43.20
2023-05-05T14:57:06.466Z,43.20
2023-05-05T14:58:06.465Z,43.01
2023-05-05T14:59:06.487Z,43.30
2023-05-05T15:00:06.481Z,43.20
2023-05-05T15:01:06.581Z,43.30
2023-05-05T15:02:06.480Z,43.37
2023-05-05T15:03:06.502Z,43.47
2023-05-05T15:04:06.473Z,43.47
2023-05-05T15:05:06.584Z,43.57
2023-05-05T15:06:06.486Z,43.66
2023-05-05T15:07:06.494Z,43.37
2023-05-05T15:08:06.475Z,43.76
2023-05-05T15:09:06.531Z,43.35
2023-05-05T15:10:06.496Z,43.45
2023-05-05T15:11:06.465Z,43.74
2023-05-05T15:12:06.470Z,43.45
2023-05-05T15:13:06.489Z,43.74
2023-05-05T15:14:06.473Z,43.74
2023-05-05T15:15:06.574Z,43.84
2023-05-05T15:16:06.495Z,43.74
2023-05-05T15:17:06.573Z,44.01
2023-05-05T15:18:06.503Z,44.30
2023-05-05T15:19:06.496Z,44.01
2023-05-05T15:20:06.487Z,44.10
2023-05-05T15:21:06.465Z,44.20
2023-05-05T15:22:06.483Z,43.82
2023-05-05T15:23:06.477Z,44.01
2023-05-05T15:24:06.495Z,44.01
2023-05-05T15:25:06.658Z,44.01
2023-05-05T15:26:06.489Z,43.91
2023-05-05T15:27:06.464Z,44.10
2023-05-05T15:28:06.462Z,44.10
2023-05-05T15:29:06.481Z,44.18
2023-05-05T15:30:06.492Z,44.18
2023-05-05T15:31:06.458Z,43.79
2023-05-05T15:32:06.532Z,44.47
2023-05-05T15:33:06.603Z,44.27
2023-05-05T15:34:06.459Z,44.37
2023-05-05T15:35:06.601Z,44.27
2023-05-05T15:36:06.491Z,44.27
2023-05-05T15:37:06.482Z,44.47
2023-05-05T15:38:06.464Z,44.47
2023-05-05T15:39:06.482Z,44.57
2023-05-05T15:40:06.504Z,44.18
2023-05-05T15:41:06.463Z,44.57
2023-05-05T15:42:06.448Z,44.57
2023-05-05T15:43:06.463Z,44.54
2023-05-05T15:44:06.456Z,44.54
2023-05-05T15:45:06.681Z,44.45
2023-05-05T15:46:06.590Z,44.54
2023-05-05T15:47:06.487Z,44.64
2023-05-05T15:48:06.536Z,44.54
2023-05-05T15:49:06.533Z,44.35
2023-05-05T15:50:06.543Z,44.64
2023-05-05T15:51:06.466Z,44.74
2023-05-05T15:52:06.435Z,44.74
2023-05-05T15:53:06.443Z,44.64
2023-05-05T15:54:06.429Z,44.54
2023-05-05T15:55:06.588Z,44.74
2023-05-05T15:56:06.456Z,44.54
2023-05-05T15:57:06.431Z,44.81
2023-05-05T15:58:06.437Z,44.72
2023-05-05T15:59:06.433Z,44.62
2023-05-05T16:00:06.432Z,44.81
2023-05-05T16:01:06.517Z,44.23
2023-05-05T16:12:44.608Z,44.81
2023-05-05T16:13:44.466Z,44.21
2023-05-05T16:14:44.453Z,44.21
2023-05-05T16:15:44.463Z,44.89
2023-05-05T16:16:44.458Z,44.89
2023-05-05T16:17:44.478Z,44.31
2023-05-05T16:18:44.413Z,44.79
2023-05-05T16:19:44.436Z,44.89
2023-05-05T16:20:44.443Z,44.70
2023-05-05T16:21:44.440Z,44.79
2023-05-05T16:22:44.406Z,44.70
2023-05-05T16:23:44.397Z,44.67
2023-05-05T16:24:44.502Z,45.08
2023-05-05T16:25:44.441Z,45.28
2023-05-05T16:26:44.421Z,44.96
2023-05-05T16:27:44.403Z,45.25
2023-05-05T16:28:44.570Z,45.45
2023-05-05T16:29:44.389Z,45.45
2023-05-05T16:30:44.393Z,45.35
2023-05-05T16:31:44.491Z,45.25
2023-05-05T16:32:44.435Z,45.45
2023-05-05T16:33:44.410Z,45.35
2023-05-05T16:34:44.384Z,45.16
2023-05-05T16:35:44.379Z,45.54
2023-05-05T16:36:44.624Z,45.35
2023-05-05T16:37:44.390Z,45.35
2023-05-05T16:38:44.372Z,45.23
2023-05-05T16:39:44.428Z,45.25
2023-05-05T16:40:44.364Z,45.04
2023-05-05T16:41:44.371Z,45.64
2023-05-05T16:42:44.704Z,45.64
2023-05-05T16:43:44.381Z,45.04
2023-05-05T16:44:44.482Z,45.52
2023-05-05T16:45:44.359Z,45.62
2023-05-05T16:46:44.560Z,45.42
2023-05-05T16:47:44.385Z,45.52
2023-05-05T16:48:44.410Z,45.52
2023-05-05T16:49:44.359Z,45.42
2023-05-05T16:50:44.373Z,45.42
2023-05-05T16:51:44.486Z,45.33
2023-05-05T16:52:44.368Z,45.23
2023-05-05T16:53:44.358Z,45.52
2023-05-05T16:54:44.360Z,45.42
2023-05-05T16:55:44.372Z,45.62
2023-05-05T16:56:44.381Z,45.62
2023-05-05T16:57:44.349Z,45.72
2023-05-05T16:58:44.330Z,45.72
2023-05-05T16:59:44.342Z,45.62
2023-05-05T17:00:44.355Z,45.79
2023-05-05T17:01:44.347Z,45.72
2023-05-05T17:02:44.377Z,45.69
2023-05-05T17:03:44.325Z,45.72
2023-05-05T17:04:44.326Z,45.62
2023-05-05T17:05:44.427Z,45.72
2023-05-05T17:06:44.320Z,45.91
2023-05-05T17:07:44.323Z,45.31
2023-05-05T17:08:44.316Z,45.79
2023-05-05T17:09:44.320Z,45.89
2023-05-05T17:10:44.353Z,45.21
2023-05-05T17:11:44.311Z,45.31
2023-05-05T17:12:44.400Z,46.08
2023-05-05T17:13:44.298Z,45.98
2023-05-05T17:14:44.296Z,45.79
2023-05-05T17:15:44.335Z,45.40
2023-05-05T17:16:44.634Z,46.37
2023-05-05T17:17:44.340Z,46.56
2023-05-05T17:18:44.294Z,46.37
2023-05-05T17:19:44.297Z,45.59
2023-05-05T17:20:44.307Z,45.59
2023-05-05T17:21:44.291Z,45.79
2023-05-05T17:22:44.290Z,45.69